Time;durP1;ratioP1;P1;durP2;ratioP2;P2;SDS_P1;SDS_P2;PMS_P1;PMS_P2;Temp;Humidity;BMP_temperature;BMP_pressure;BME280_temperature;BME280_humidity;BME280_pressure;Samples;Min_cycle;Max_cycle;Signal;HPM_P1;HPM_P2
2023/07/07 00:00:22;;;;;;;12.02;11.43;;;;;;;;;;5051362;28;20032;-59
2023/07/07 00:02:47;;;;;;;11.70;11.20;;;;;;;;;;5049008;28;20040;-61
2023/07/07 00:05:13;;;;;;;11.35;10.85;;;;;;;;;;5049066;28;20021;-61
2023/07/07 00:07:38;;;;;;;12.25;11.65;;;;;;;;;;5047438;28;20100;-61
2023/07/07 00:10:04;;;;;;;11.73;11.18;;;;;;;;;;5050718;28;20029;-60
2023/07/07 00:12:29;;;;;;;12.20;11.60;;;;;;;;;;5049331;28;20017;-61
2023/07/07 00:14:55;;;;;;;11.90;11.30;;;;;;;;;;5048305;28;20419;-61
2023/07/07 00:17:20;;;;;;;12.30;11.70;;;;;;;;;;5047884;28;20029;-61
2023/07/07 00:19:47;;;;;;;11.55;11.05;;;;;;;;;;5032050;28;20443;-59
2023/07/07 00:22:12;;;;;;;12.07;11.48;;;;;;;;;;5049926;28;20124;-61
2023/07/07 00:24:37;;;;;;;11.82;11.23;;;;;;;;;;5048104;28;20114;-61
2023/07/07 00:27:03;;;;;;;12.10;11.50;;;;;;;;;;5050887;28;20036;-62
2023/07/07 00:29:28;;;;;;;12.10;11.50;;;;;;;;;;5048779;28;20052;-61
2023/07/07 00:31:53;;;;;;;12.00;11.40;;;;;;;;;;5051072;28;20017;-61
2023/07/07 00:34:19;;;;;;;12.23;11.63;;;;;;;;;;5049406;28;20035;-60
2023/07/07 00:36:44;;;;;;;11.95;11.35;;;;;;;;;;5045704;28;20113;-61
2023/07/07 00:39:09;;;;;;;11.77;11.17;;;;;;;;;;5049059;28;20015;-59
2023/07/07 00:41:35;;;;;;;11.95;11.35;;;;;;;;;;5048330;28;20250;-61
2023/07/07 00:44:04;;;;;;;11.98;11.38;;;;;;;;;;5049415;28;20017;-61
2023/07/07 00:46:30;;;;;;;12.50;11.90;;;;;;;;;;5049783;28;20021;-61
2023/07/07 00:48:56;;;;;;;11.82;11.23;;;;;;;;;;5046713;28;20079;-61
2023/07/07 00:51:25;;;;;;;11.88;11.30;;;;;;;;;;5050494;28;20082;-60
2023/07/07 00:53:51;;;;;;;12.40;11.80;;;;;;;;;;5049397;28;20013;-60
2023/07/07 00:56:20;;;;;;;12.05;11.45;;;;;;;;;;5049858;28;20025;-61
2023/07/07 00:58:46;;;;;;;11.50;11.00;;;;;;;;;;5049264;28;20029;-62
2023/07/07 01:01:14;;;;;;;12.18;11.57;;;;;;;;;;5048603;28;20028;-61
2023/07/07 01:03:41;;;;;;;12.00;11.40;;;;;;;;;;5050389;28;20126;-60
2023/07/07 01:06:08;;;;;;;11.70;11.20;;;;;;;;;;5047420;28;20434;-61
2023/07/07 01:08:36;;;;;;;11.98;11.40;;;;;;;;;;5051015;28;20021;-61
2023/07/07 01:11:01;;;;;;;11.65;11.15;;;;;;;;;;5049117;28;20044;-61
2023/07/07 01:13:27;;;;;;;12.65;12.05;;;;;;;;;;5051462;28;20472;-60
2023/07/07 01:15:57;;;;;;;11.50;11.00;;;;;;;;;;5049261;28;20060;-60
2023/07/07 01:18:25;;;;;;;13.10;12.43;;;;;;;;;;5050899;28;20067;-61
2023/07/07 01:21:09;;;;;;;11.50;11.00;;;;;;;;;;5046368;28;20021;-61
2023/07/07 01:23:46;;;;;;;11.80;11.20;;;;;;;;;;5049381;28;20417;-61
2023/07/07 01:26:14;;;;;;;12.07;11.48;;;;;;;;;;5049015;28;20027;-61
2023/07/07 01:28:39;;;;;;;12.27;11.68;;;;;;;;;;5049311;28;20048;-60
2023/07/07 01:31:12;;;;;;;12.07;11.48;;;;;;;;;;5050684;28;20013;-61
2023/07/07 01:33:37;;;;;;;11.90;11.30;;;;;;;;;;5048435;28;20055;-61
2023/07/07 01:36:03;;;;;;;11.90;11.35;;;;;;;;;;5049294;28;20017;-60
2023/07/07 01:38:31;;;;;;;11.95;11.35;;;;;;;;;;5048277;28;20040;-62
2023/07/07 01:41:07;;;;;;;11.90;11.30;;;;;;;;;;5049225;28;20107;-60
2023/07/07 01:43:45;;;;;;;12.57;11.98;;;;;;;;;;5051189;28;20025;-61
2023/07/07 01:46:16;;;;;;;11.40;10.90;;;;;;;;;;5050444;28;20036;-61
2023/07/07 01:48:41;;;;;;;13.10;12.40;;;;;;;;;;5044038;28;20022;-61
2023/07/07 01:51:09;;;;;;;12.40;11.80;;;;;;;;;;5053404;28;20083;-60
2023/07/07 01:53:36;;;;;;;12.73;12.13;;;;;;;;;;5051107;28;20045;-61
2023/07/07 01:56:01;;;;;;;12.60;12.00;;;;;;;;;;5052500;28;20529;-61
2023/07/07 01:58:28;;;;;;;11.93;11.32;;;;;;;;;;5051358;28;20028;-61
2023/07/07 02:00:55;;;;;;;11.90;11.30;;;;;;;;;;5052187;28;20021;-61
2023/07/07 02:03:21;;;;;;;12.13;11.52;;;;;;;;;;5053020;28;20143;-61
2023/07/07 02:05:46;;;;;;;11.68;11.10;;;;;;;;;;5052614;28;20108;-61
2023/07/07 02:08:12;;;;;;;11.73;11.23;;;;;;;;;;5052513;28;20506;-61
2023/07/07 02:10:37;;;;;;;12.55;11.95;;;;;;;;;;5053328;28;20075;-61
2023/07/07 02:13:02;;;;;;;12.73;12.13;;;;;;;;;;5051293;28;20045;-61
2023/07/07 02:15:28;;;;;;;11.82;11.25;;;;;;;;;;5051706;28;20032;-61
2023/07/07 02:17:53;;;;;;;11.73;11.23;;;;;;;;;;5053960;28;20434;-61
2023/07/07 02:20:18;;;;;;;13.43;12.73;;;;;;;;;;5051999;28;20421;-60
2023/07/07 02:22:44;;;;;;;12.10;11.50;;;;;;;;;;5051352;28;20031;-62
2023/07/07 02:25:09;;;;;;;12.25;11.65;;;;;;;;;;5049667;28;20494;-61
2023/07/07 02:27:34;;;;;;;12.27;11.68;;;;;;;;;;5052069;28;20024;-61
2023/07/07 02:30:00;;;;;;;12.48;11.88;;;;;;;;;;5045503;28;20036;-61
2023/07/07 02:32:28;;;;;;;12.35;11.75;;;;;;;;;;5047186;28;20041;-62
2023/07/07 02:34:57;;;;;;;12.20;11.60;;;;;;;;;;5050217;28;20033;-61
2023/07/07 02:37:23;;;;;;;12.30;11.70;;;;;;;;;;5051393;28;20113;-61
2023/07/07 02:39:48;;;;;;;12.52;11.93;;;;;;;;;;5050737;28;20025;-61
2023/07/07 02:42:14;;;;;;;11.98;11.38;;;;;;;;;;5052727;28;20079;-62
2023/07/07 02:44:39;;;;;;;12.05;11.45;;;;;;;;;;5049086;28;20076;-61
2023/07/07 02:47:05;;;;;;;12.30;11.70;;;;;;;;;;5052344;28;20382;-60
2023/07/07 02:49:31;;;;;;;12.10;11.50;;;;;;;;;;5049952;28;20032;-61
2023/07/07 02:51:56;;;;;;;12.23;11.63;;;;;;;;;;5052152;28;20013;-61
2023/07/07 02:54:21;;;;;;;12.63;12.02;;;;;;;;;;5050586;28;20032;-61
2023/07/07 02:56:46;;;;;;;11.65;11.15;;;;;;;;;;5052232;28;20025;-61
2023/07/07 02:59:12;;;;;;;12.38;11.77;;;;;;;;;;5051635;28;20025;-61
2023/07/07 03:01:37;;;;;;;12.23;11.63;;;;;;;;;;5051477;28;20021;-61
2023/07/07 03:04:02;;;;;;;11.43;10.93;;;;;;;;;;5050374;28;20025;-61
2023/07/07 03:06:28;;;;;;;12.90;12.25;;;;;;;;;;5046873;28;20033;-61
2023/07/07 03:08:53;;;;;;;12.77;12.15;;;;;;;;;;5049607;28;20139;-62
2023/07/07 03:11:19;;;;;;;12.15;11.55;;;;;;;;;;5051090;28;20040;-60
2023/07/07 03:13:45;;;;;;;12.15;11.55;;;;;;;;;;5052033;28;20024;-61
2023/07/07 03:16:20;;;;;;;12.27;11.68;;;;;;;;;;5052699;28;20029;-61
2023/07/07 03:18:46;;;;;;;12.65;12.05;;;;;;;;;;5050647;28;20033;-61
2023/07/07 03:21:12;;;;;;;12.57;11.98;;;;;;;;;;5030471;28;20484;-61
2023/07/07 03:23:38;;;;;;;12.30;11.70;;;;;;;;;;5051481;28;20178;-61
2023/07/07 03:26:11;;;;;;;11.85;11.35;;;;;;;;;;5050368;28;20032;-60
2023/07/07 03:28:36;;;;;;;12.50;11.90;;;;;;;;;;5052530;28;20025;-60
2023/07/07 03:31:13;;;;;;;12.23;11.63;;;;;;;;;;5048559;28;20036;-60
2023/07/07 03:33:39;;;;;;;12.20;11.60;;;;;;;;;;5050225;28;20021;-60
2023/07/07 03:36:05;;;;;;;11.82;11.32;;;;;;;;;;5050756;28;20033;-61
2023/07/07 03:38:30;;;;;;;12.63;12.02;;;;;;;;;;5051887;28;20025;-60
2023/07/07 03:40:56;;;;;;;11.80;11.30;;;;;;;;;;5048206;28;20021;-61
2023/07/07 03:43:21;;;;;;;12.20;11.60;;;;;;;;;;5049579;28;20100;-61
2023/07/07 03:45:46;;;;;;;12.10;11.57;;;;;;;;;;5047598;28;20044;-61
2023/07/07 03:48:12;;;;;;;12.32;11.73;;;;;;;;;;5050673;28;20071;-61
2023/07/07 03:50:37;;;;;;;12.18;11.60;;;;;;;;;;5046376;28;20466;-61
2023/07/07 03:53:02;;;;;;;12.02;11.52;;;;;;;;;;5051162;28;20025;-63
2023/07/07 03:55:28;;;;;;;12.80;12.20;;;;;;;;;;5048939;28;20111;-61
2023/07/07 03:57:53;;;;;;;11.70;11.20;;;;;;;;;;5050125;28;20139;-60
2023/07/07 04:00:18;;;;;;;12.33;11.73;;;;;;;;;;5048519;28;20160;-61
2023/07/07 04:02:44;;;;;;;11.77;11.27;;;;;;;;;;5051339;28;20270;-62
2023/07/07 04:05:10;;;;;;;13.52;12.93;;;;;;;;;;5046362;28;20052;-61
2023/07/07 04:07:36;;;;;;;12.18;11.68;;;;;;;;;;5050654;28;20025;-60
2023/07/07 04:10:02;;;;;;;12.00;11.50;;;;;;;;;;5048875;28;20063;-61
2023/07/07 04:12:27;;;;;;;11.90;11.40;;;;;;;;;;5050248;28;20044;-60
2023/07/07 04:14:53;;;;;;;12.03;11.53;;;;;;;;;;5050275;28;20132;-61
2023/07/07 04:17:18;;;;;;;12.10;11.60;;;;;;;;;;5047051;28;20254;-62
2023/07/07 04:19:43;;;;;;;11.82;11.32;;;;;;;;;;5048649;28;20091;-61
2023/07/07 04:22:09;;;;;;;11.75;11.25;;;;;;;;;;5047554;28;20036;-61
2023/07/07 04:24:34;;;;;;;12.00;11.50;;;;;;;;;;5032785;28;20041;-61
2023/07/07 04:26:59;;;;;;;12.20;11.70;;;;;;;;;;5049220;28;20021;-62
2023/07/07 04:29:25;;;;;;;12.60;12.00;;;;;;;;;;5048769;28;20025;-61
2023/07/07 04:31:50;;;;;;;12.07;11.57;;;;;;;;;;5047320;28;20025;-60
2023/07/07 04:34:16;;;;;;;13.30;12.70;;;;;;;;;;5046073;28;20017;-61
2023/07/07 04:36:42;;;;;;;12.50;11.90;;;;;;;;;;5044370;28;20108;-61
2023/07/07 04:39:07;;;;;;;12.02;11.52;;;;;;;;;;5048951;28;20159;-62
2023/07/07 04:41:33;;;;;;;12.60;12.00;;;;;;;;;;5047098;28;20643;-62
2023/07/07 04:43:59;;;;;;;12.63;12.02;;;;;;;;;;5049626;28;20033;-60
2023/07/07 04:46:27;;;;;;;12.23;11.65;;;;;;;;;;5048546;28;20021;-60
2023/07/07 04:48:53;;;;;;;12.68;12.07;;;;;;;;;;5048689;28;20020;-60
2023/07/07 04:51:19;;;;;;;12.65;12.05;;;;;;;;;;5050788;28;20025;-61
2023/07/07 04:53:44;;;;;;;12.60;12.00;;;;;;;;;;5050208;28;20518;-60
2023/07/07 04:56:11;;;;;;;11.88;11.38;;;;;;;;;;5049747;28;20037;-61
2023/07/07 04:58:36;;;;;;;12.65;12.05;;;;;;;;;;5048289;28;20044;-60
2023/07/07 05:01:13;;;;;;;11.90;11.40;;;;;;;;;;5049839;28;20021;-61
2023/07/07 05:03:39;;;;;;;12.27;11.75;;;;;;;;;;5045684;28;20060;-61
2023/07/07 05:06:05;;;;;;;11.95;11.45;;;;;;;;;;5049185;28;20064;-61
2023/07/07 05:08:34;;;;;;;12.57;11.98;;;;;;;;;;5047301;28;20509;-61
2023/07/07 05:10:59;;;;;;;12.38;11.85;;;;;;;;;;5050001;28;20033;-61
2023/07/07 05:13:25;;;;;;;12.55;11.95;;;;;;;;;;5049851;28;20087;-61
2023/07/07 05:15:57;;;;;;;12.27;11.77;;;;;;;;;;5050473;28;20032;-62
2023/07/07 05:18:22;;;;;;;12.70;12.10;;;;;;;;;;5048270;28;20036;-61
2023/07/07 05:20:48;;;;;;;12.30;11.80;;;;;;;;;;5048367;28;20017;-61
2023/07/07 05:23:13;;;;;;;11.63;11.13;;;;;;;;;;5050830;28;20327;-61
2023/07/07 05:25:38;;;;;;;12.00;11.50;;;;;;;;;;5052798;28;20274;-61
2023/07/07 05:28:04;;;;;;;12.20;11.70;;;;;;;;;;5053317;28;20021;-61
2023/07/07 05:30:29;;;;;;;12.10;11.60;;;;;;;;;;5053675;28;20045;-62
2023/07/07 05:32:55;;;;;;;12.25;11.75;;;;;;;;;;5052540;28;20340;-62
2023/07/07 05:35:20;;;;;;;12.03;11.53;;;;;;;;;;5051706;28;20032;-62
2023/07/07 05:37:45;;;;;;;11.77;11.27;;;;;;;;;;5053780;28;20109;-60
2023/07/07 05:40:11;;;;;;;12.07;11.57;;;;;;;;;;5052406;28;20268;-61
2023/07/07 05:42:36;;;;;;;12.00;11.50;;;;;;;;;;5052556;28;20357;-60
2023/07/07 05:45:01;;;;;;;11.90;11.40;;;;;;;;;;5051731;28;20484;-61
2023/07/07 05:47:27;;;;;;;11.70;11.20;;;;;;;;;;5050778;28;20025;-62
2023/07/07 05:49:53;;;;;;;12.00;11.50;;;;;;;;;;5049218;28;20311;-61
2023/07/07 05:52:18;;;;;;;11.00;10.50;;;;;;;;;;5053876;28;20024;-61
2023/07/07 05:54:44;;;;;;;11.43;10.93;;;;;;;;;;5053627;28;20013;-61
2023/07/07 05:57:09;;;;;;;11.80;11.30;;;;;;;;;;5052577;28;20021;-60
2023/07/07 05:59:34;;;;;;;12.10;11.60;;;;;;;;;;5053088;28;20365;-61
2023/07/07 06:01:59;;;;;;;11.93;11.43;;;;;;;;;;5054279;28;20047;-61
2023/07/07 06:04:25;;;;;;;11.73;11.23;;;;;;;;;;5051245;28;20013;-61
2023/07/07 06:06:50;;;;;;;11.55;11.05;;;;;;;;;;5052918;28;20277;-61
2023/07/07 06:09:16;;;;;;;11.68;11.18;;;;;;;;;;5052801;28;20009;-60
2023/07/07 06:11:41;;;;;;;11.57;11.07;;;;;;;;;;5053151;28;20550;-61
2023/07/07 06:14:06;;;;;;;11.70;11.20;;;;;;;;;;5051700;28;20017;-64
2023/07/07 06:16:31;;;;;;;11.90;11.40;;;;;;;;;;5051080;28;20013;-61
2023/07/07 06:18:57;;;;;;;11.80;11.30;;;;;;;;;;5052719;28;20104;-61
2023/07/07 06:21:22;;;;;;;12.10;11.60;;;;;;;;;;5052039;28;20262;-61
2023/07/07 06:23:47;;;;;;;12.10;11.60;;;;;;;;;;5051682;28;20477;-60
2023/07/07 06:26:13;;;;;;;12.70;12.10;;;;;;;;;;5051460;28;20343;-61
2023/07/07 06:28:38;;;;;;;11.90;11.40;;;;;;;;;;5034917;28;20262;-61
2023/07/07 06:31:03;;;;;;;12.65;12.05;;;;;;;;;;5034390;28;20024;-61
2023/07/07 06:33:29;;;;;;;11.63;11.13;;;;;;;;;;5052580;28;20025;-61
2023/07/07 06:35:54;;;;;;;12.30;11.80;;;;;;;;;;5051466;28;20037;-62
2023/07/07 06:38:19;;;;;;;12.15;11.65;;;;;;;;;;5052378;28;20021;-61
2023/07/07 06:40:47;;;;;;;12.35;11.75;;;;;;;;;;5046224;28;20025;-61
2023/07/07 06:43:17;;;;;;;12.32;11.77;;;;;;;;;;5048561;28;20541;-61
2023/07/07 06:45:43;;;;;;;11.90;11.40;;;;;;;;;;5052355;28;20106;-60
2023/07/07 06:48:09;;;;;;;12.23;11.68;;;;;;;;;;5053118;28;20021;-60
2023/07/07 06:50:35;;;;;;;11.98;11.48;;;;;;;;;;5050422;28;20044;-60
2023/07/07 06:53:00;;;;;;;12.55;11.95;;;;;;;;;;5051592;28;20033;-61
2023/07/07 06:55:25;;;;;;;12.63;12.02;;;;;;;;;;5051817;28;20025;-61
2023/07/07 06:57:51;;;;;;;11.88;11.38;;;;;;;;;;5050655;28;20040;-61
2023/07/07 07:00:17;;;;;;;12.07;11.55;;;;;;;;;;5052419;28;20063;-60
2023/07/07 07:02:42;;;;;;;11.70;11.20;;;;;;;;;;5052660;28;20415;-61
2023/07/07 07:05:08;;;;;;;11.75;11.25;;;;;;;;;;5051357;28;20033;-62
2023/07/07 07:07:33;;;;;;;12.43;11.82;;;;;;;;;;5050611;28;20009;-60
2023/07/07 07:10:00;;;;;;;13.30;12.70;;;;;;;;;;5047489;28;20036;-59
2023/07/07 07:12:25;;;;;;;12.57;11.98;;;;;;;;;;5046497;28;20013;-60
2023/07/07 07:14:50;;;;;;;12.37;11.77;;;;;;;;;;5049513;28;20685;-58
2023/07/07 07:17:16;;;;;;;12.50;11.90;;;;;;;;;;5044536;28;20345;-59
2023/07/07 07:19:41;;;;;;;12.65;12.05;;;;;;;;;;5046065;28;20103;-58
2023/07/07 07:22:06;;;;;;;12.80;12.20;;;;;;;;;;5045464;28;20040;-58
2023/07/07 07:24:32;;;;;;;12.63;12.02;;;;;;;;;;5043551;28;20384;-59
2023/07/07 07:26:57;;;;;;;12.15;11.55;;;;;;;;;;5043981;28;20024;-58
2023/07/07 07:29:22;;;;;;;12.63;12.03;;;;;;;;;;5047098;28;20017;-59
2023/07/07 07:31:48;;;;;;;11.90;11.40;;;;;;;;;;5046377;28;20266;-59
2023/07/07 07:34:19;;;;;;;12.32;11.73;;;;;;;;;;5046132;28;20270;-60
2023/07/07 07:36:45;;;;;;;11.93;11.43;;;;;;;;;;5046717;28;20034;-59
2023/07/07 07:39:10;;;;;;;12.70;12.10;;;;;;;;;;5044386;28;20079;-58
2023/07/07 07:41:36;;;;;;;13.77;13.07;;;;;;;;;;5043674;28;20747;-60
2023/07/07 07:44:01;;;;;;;11.90;11.40;;;;;;;;;;5045569;28;20025;-60
2023/07/07 07:46:28;;;;;;;12.80;12.20;;;;;;;;;;5039877;28;20572;-59
2023/07/07 07:48:53;;;;;;;12.68;12.07;;;;;;;;;;5045548;28;20294;-59
2023/07/07 07:51:18;;;;;;;12.40;11.80;;;;;;;;;;5045356;28;20052;-58
2023/07/07 07:53:44;;;;;;;12.38;11.77;;;;;;;;;;5044218;28;20013;-59
2023/07/07 07:56:09;;;;;;;17.50;16.55;;;;;;;;;;5038613;28;21027;-61
2023/07/07 07:58:34;;;;;;;14.87;14.07;;;;;;;;;;5036538;28;20041;-59
2023/07/07 08:00:59;;;;;;;13.23;12.63;;;;;;;;;;5042263;28;20661;-59
2023/07/07 08:03:25;;;;;;;13.50;12.80;;;;;;;;;;5041760;28;20047;-59
2023/07/07 08:05:50;;;;;;;14.07;13.37;;;;;;;;;;5042468;28;20563;-58
2023/07/07 08:08:15;;;;;;;14.30;13.60;;;;;;;;;;5037069;28;20270;-60
2023/07/07 08:10:40;;;;;;;13.83;13.13;;;;;;;;;;5043718;28;20028;-59
2023/07/07 08:13:06;;;;;;;12.83;12.23;;;;;;;;;;5047143;28;20365;-60
2023/07/07 08:15:31;;;;;;;13.60;12.90;;;;;;;;;;5044966;28;20335;-59
2023/07/07 08:17:56;;;;;;;13.13;12.53;;;;;;;;;;5041070;28;20480;-61
2023/07/07 08:20:23;;;;;;;14.07;13.37;;;;;;;;;;5043306;28;20250;-62
2023/07/07 08:22:48;;;;;;;14.00;13.30;;;;;;;;;;5044853;28;20281;-61
2023/07/07 08:25:14;;;;;;;13.82;13.13;;;;;;;;;;5037138;28;20021;-61
2023/07/07 08:27:39;;;;;;;13.80;13.10;;;;;;;;;;5038584;28;20079;-61
2023/07/07 08:30:05;;;;;;;13.10;12.50;;;;;;;;;;5040645;28;20071;-59
2023/07/07 08:32:30;;;;;;;12.77;12.18;;;;;;;;;;5041248;28;20047;-61
2023/07/07 08:34:55;;;;;;;14.43;13.73;;;;;;;;;;5033837;28;20025;-61
2023/07/07 08:37:22;;;;;;;13.45;12.80;;;;;;;;;;5038663;28;20284;-60
2023/07/07 08:39:47;;;;;;;13.38;12.77;;;;;;;;;;5038218;28;20027;-61
2023/07/07 08:42:19;;;;;;;13.13;12.52;;;;;;;;;;5044388;28;20028;-61
2023/07/07 08:44:44;;;;;;;13.30;12.70;;;;;;;;;;5036057;28;20116;-61
2023/07/07 08:47:15;;;;;;;13.48;12.88;;;;;;;;;;5042621;28;20615;-60
2023/07/07 08:49:49;;;;;;;12.95;12.35;;;;;;;;;;5042721;28;20392;-61
2023/07/07 08:52:27;;;;;;;13.55;12.95;;;;;;;;;;5039794;28;20025;-71
2023/07/07 08:54:58;;;;;;;13.40;12.80;;;;;;;;;;5040968;28;20024;-61
2023/07/07 08:57:27;;;;;;;13.30;12.70;;;;;;;;;;5041310;28;20017;-63
2023/07/07 08:59:57;;;;;;;13.57;12.98;;;;;;;;;;5039568;28;20039;-65
2023/07/07 09:02:26;;;;;;;13.15;12.55;;;;;;;;;;5041068;28;20079;-65
2023/07/07 09:05:00;;;;;;;12.50;11.90;;;;;;;;;;5039091;28;20020;-62
2023/07/07 09:07:25;;;;;;;13.02;12.43;;;;;;;;;;5038276;28;20048;-62
2023/07/07 09:10:09;;;;;;;13.07;12.48;;;;;;;;;;5040372;28;20052;-62
2023/07/07 09:12:38;;;;;;;13.50;12.90;;;;;;;;;;5036389;28;20472;-61
2023/07/07 09:15:10;;;;;;;12.90;12.30;;;;;;;;;;5039241;28;20178;-62
2023/07/07 09:17:39;;;;;;;13.00;12.40;;;;;;;;;;5024460;28;20028;-62
2023/07/07 09:20:06;;;;;;;13.32;12.73;;;;;;;;;;5043345;28;20496;-63
2023/07/07 09:22:43;;;;;;;13.73;13.02;;;;;;;;;;5037104;28;20216;-62
2023/07/07 09:25:35;;;;;;;13.45;12.85;;;;;;;;;;5037365;28;20036;-62
2023/07/07 09:28:02;;;;;;;13.48;12.88;;;;;;;;;;5037367;28;20140;-61
2023/07/07 09:30:33;;;;;;;13.95;13.25;;;;;;;;;;5039330;28;20031;-62
2023/07/07 09:32:58;;;;;;;13.18;12.57;;;;;;;;;;5040170;28;20590;-61
2023/07/07 09:35:27;;;;;;;13.57;12.93;;;;;;;;;;5037699;28;20032;-62
2023/07/07 09:38:03;;;;;;;12.88;12.27;;;;;;;;;;5037223;28;20428;-61
2023/07/07 09:40:37;;;;;;;13.68;12.98;;;;;;;;;;5039559;28;20484;-62
2023/07/07 09:43:20;;;;;;;13.40;12.80;;;;;;;;;;5040851;28;20152;-61
2023/07/07 09:46:18;;;;;;;13.13;12.52;;;;;;;;;;5040589;28;20032;-61
2023/07/07 09:48:46;;;;;;;13.88;13.18;;;;;;;;;;4998018;28;20040;-61
2023/07/07 09:51:29;;;;;;;12.40;11.80;;;;;;;;;;5042334;28;20021;-61
2023/07/07 09:53:55;;;;;;;13.00;12.40;;;;;;;;;;5043998;28;20462;-62
2023/07/07 09:56:23;;;;;;;13.98;13.27;;;;;;;;;;5041451;28;20044;-61
2023/07/07 09:59:08;;;;;;;13.30;12.70;;;;;;;;;;5041400;28;20047;-60
2023/07/07 10:01:33;;;;;;;;;;;;;;;;;;5040407;28;20051;-60
2023/07/07 10:03:59;;;;;;;13.18;12.57;;;;;;;;;;5042066;28;20375;-63
2023/07/07 10:06:51;;;;;;;13.45;12.85;;;;;;;;;;5037527;28;20044;-60
2023/07/07 10:09:16;;;;;;;13.23;12.63;;;;;;;;;;5037138;28;20037;-61
2023/07/07 10:11:42;;;;;;;12.88;12.27;;;;;;;;;;5043029;28;20029;-61
2023/07/07 10:14:10;;;;;;;13.90;13.20;;;;;;;;;;5028999;28;20029;-61
2023/07/07 10:16:54;;;;;;;12.73;12.13;;;;;;;;;;5043808;28;20056;-61
2023/07/07 10:19:19;;;;;;;13.52;12.93;;;;;;;;;;5039501;28;20407;-62
2023/07/07 10:21:46;;;;;;;13.33;12.73;;;;;;;;;;5038140;28;20120;-62
2023/07/07 10:24:15;;;;;;;12.80;12.20;;;;;;;;;;5046740;28;20339;-61
2023/07/07 10:26:45;;;;;;;13.02;12.43;;;;;;;;;;5043128;28;20552;-61
2023/07/07 10:29:13;;;;;;;12.95;12.35;;;;;;;;;;5044083;28;20107;-61
2023/07/07 10:31:43;;;;;;;14.00;13.30;;;;;;;;;;5044115;28;20033;-61
2023/07/07 10:34:17;;;;;;;13.95;13.25;;;;;;;;;;5043836;28;20013;-60
2023/07/07 10:36:43;;;;;;;13.52;12.93;;;;;;;;;;5042978;28;20033;-60
2023/07/07 10:39:08;;;;;;;12.55;11.95;;;;;;;;;;5030275;28;20503;-60
2023/07/07 10:41:33;;;;;;;13.20;12.60;;;;;;;;;;5040732;28;20021;-60
2023/07/07 10:43:59;;;;;;;13.03;12.43;;;;;;;;;;5040846;28;20793;-62
2023/07/07 10:46:24;;;;;;;12.75;12.15;;;;;;;;;;5041794;28;20139;-60
2023/07/07 10:48:50;;;;;;;13.15;12.55;;;;;;;;;;5041469;28;20040;-60
2023/07/07 10:51:22;;;;;;;13.07;12.48;;;;;;;;;;5043761;28;20017;-61
2023/07/07 10:54:13;;;;;;;13.25;12.65;;;;;;;;;;5044756;28;20032;-60
2023/07/07 10:56:44;;;;;;;13.30;12.70;;;;;;;;;;5009314;28;20063;-61
2023/07/07 10:59:19;;;;;;;14.40;13.70;;;;;;;;;;5042043;28;20496;-61
2023/07/07 11:01:47;;;;;;;13.85;13.15;;;;;;;;;;5034400;28;20112;-60
2023/07/07 11:04:12;;;;;;;14.18;13.48;;;;;;;;;;5043292;28;20098;-61
2023/07/07 11:07:13;;;;;;;14.65;13.95;;;;;;;;;;5036337;28;20532;-60
2023/07/07 11:09:44;;;;;;;13.20;12.60;;;;;;;;;;4959896;28;20023;-62
2023/07/07 11:12:12;;;;;;;13.55;12.95;;;;;;;;;;5030363;28;20455;-61
2023/07/07 11:14:37;;;;;;;13.30;12.70;;;;;;;;;;5044556;28;20025;-60
2023/07/07 11:17:18;;;;;;;13.00;12.40;;;;;;;;;;5043740;28;20094;-62
2023/07/07 11:20:01;;;;;;;13.02;12.43;;;;;;;;;;5042735;28;20086;-62
2023/07/07 11:22:49;;;;;;;13.10;12.50;;;;;;;;;;5025139;28;20021;-61
2023/07/07 11:25:14;;;;;;;12.75;12.15;;;;;;;;;;5037651;28;20186;-61
2023/07/07 11:27:50;;;;;;;13.38;12.77;;;;;;;;;;5041351;28;20036;-61
2023/07/07 11:30:21;;;;;;;13.45;12.85;;;;;;;;;;5039936;28;20029;-59
2023/07/07 11:32:46;;;;;;;12.75;12.15;;;;;;;;;;5037896;28;20021;-61
2023/07/07 11:35:17;;;;;;;12.83;12.23;;;;;;;;;;5043745;28;20070;-61
2023/07/07 11:37:45;;;;;;;13.30;12.70;;;;;;;;;;5042902;28;20415;-61
2023/07/07 11:40:19;;;;;;;13.55;12.95;;;;;;;;;;5040861;28;20025;-61
2023/07/07 11:43:23;;;;;;;12.82;12.23;;;;;;;;;;5041758;28;20431;-61
2023/07/07 11:45:57;;;;;;;12.75;12.15;;;;;;;;;;4980718;28;20034;-61
2023/07/07 11:48:24;;;;;;;12.93;12.32;;;;;;;;;;4979182;28;20026;-61
2023/07/07 11:50:49;;;;;;;13.07;12.48;;;;;;;;;;5006667;28;20033;-61
2023/07/07 11:53:28;;;;;;;13.00;12.40;;;;;;;;;;5038441;28;20030;-62
2023/07/07 11:55:56;;;;;;;13.25;12.65;;;;;;;;;;5039419;28;20094;-61
2023/07/07 11:58:30;;;;;;;13.00;12.40;;;;;;;;;;5043533;28;20454;-62
2023/07/07 12:01:05;;;;;;;12.75;12.15;;;;;;;;;;5039558;28;20545;-60
2023/07/07 12:03:47;;;;;;;13.55;12.95;;;;;;;;;;5040256;28;20064;-63
2023/07/07 12:06:31;;;;;;;13.38;12.77;;;;;;;;;;5041363;28;20098;-61
2023/07/07 12:08:56;;;;;;;;;;;;;;;;;;5039321;28;20021;-61
2023/07/07 12:11:22;;;;;;;12.70;12.10;;;;;;;;;;5043734;28;20018;-62
2023/07/07 12:13:59;;;;;;;12.70;12.10;;;;;;;;;;5041919;28;20069;-61
2023/07/07 12:16:25;;;;;;;13.05;12.45;;;;;;;;;;5040757;28;20444;-62
2023/07/07 12:18:54;;;;;;;13.15;12.55;;;;;;;;;;5025304;28;20036;-61
2023/07/07 12:21:28;;;;;;;12.38;11.77;;;;;;;;;;5040173;28;20051;-63
2023/07/07 12:23:59;;;;;;;12.82;12.23;;;;;;;;;;5040273;28;20034;-62
2023/07/07 12:26:33;;;;;;;13.23;12.63;;;;;;;;;;5042813;28;20029;-62
2023/07/07 12:28:59;;;;;;;13.52;12.93;;;;;;;;;;5038183;28;20033;-63
2023/07/07 12:31:26;;;;;;;12.82;12.23;;;;;;;;;;5020843;28;20024;-62
2023/07/07 12:33:51;;;;;;;13.00;12.40;;;;;;;;;;5035201;28;20017;-61
2023/07/07 12:36:17;;;;;;;12.82;12.23;;;;;;;;;;5039070;28;20170;-61
2023/07/07 12:38:47;;;;;;;12.82;12.23;;;;;;;;;;5038053;28;20659;-62
2023/07/07 12:41:14;;;;;;;13.70;13.10;;;;;;;;;;5039858;28;20112;-61
2023/07/07 12:43:50;;;;;;;13.55;12.95;;;;;;;;;;5039804;28;20974;-61
2023/07/07 12:46:23;;;;;;;12.80;12.20;;;;;;;;;;5039410;28;20388;-61
2023/07/07 12:48:52;;;;;;;12.80;12.20;;;;;;;;;;5041924;28;20043;-59
2023/07/07 12:51:18;;;;;;;13.05;12.45;;;;;;;;;;5037174;28;20079;-64
2023/07/07 12:53:45;;;;;;;12.68;12.07;;;;;;;;;;5037053;28;20029;-61
2023/07/07 12:56:10;;;;;;;13.38;12.77;;;;;;;;;;5040222;28;20127;-61
2023/07/07 12:58:38;;;;;;;12.80;12.20;;;;;;;;;;5037743;28;20096;-60
2023/07/07 13:01:05;;;;;;;12.95;12.35;;;;;;;;;;5036283;28;20277;-61
2023/07/07 13:03:30;;;;;;;13.18;12.57;;;;;;;;;;5039119;28;20055;-60
2023/07/07 13:05:57;;;;;;;12.60;12.00;;;;;;;;;;5039400;28;20036;-62
2023/07/07 13:08:36;;;;;;;13.10;12.50;;;;;;;;;;5043199;28;20430;-61
2023/07/07 13:11:03;;;;;;;13.18;12.57;;;;;;;;;;5044479;28;20028;-60
2023/07/07 13:13:33;;;;;;;13.00;12.40;;;;;;;;;;5036794;28;20025;-61
2023/07/07 13:15:58;;;;;;;13.18;12.57;;;;;;;;;;5039579;28;20056;-62
2023/07/07 13:18:24;;;;;;;13.90;13.20;;;;;;;;;;5043322;28;20436;-61
2023/07/07 13:20:50;;;;;;;14.02;13.32;;;;;;;;;;5035935;28;20274;-63
2023/07/07 13:23:15;;;;;;;12.77;12.18;;;;;;;;;;5030913;28;20118;-61
2023/07/07 13:25:45;;;;;;;13.05;12.45;;;;;;;;;;5040628;28;20037;-61
2023/07/07 13:28:11;;;;;;;12.95;12.35;;;;;;;;;;5040680;28;20104;-61
2023/07/07 13:30:41;;;;;;;13.02;12.43;;;;;;;;;;5041403;28;20108;-62
2023/07/07 13:33:07;;;;;;;12.85;12.25;;;;;;;;;;5043822;28;20056;-63
2023/07/07 13:35:34;;;;;;;13.57;12.98;;;;;;;;;;5042254;28;20029;-60
2023/07/07 13:38:12;;;;;;;13.07;12.48;;;;;;;;;;5042375;28;20033;-61
2023/07/07 13:40:37;;;;;;;13.20;12.60;;;;;;;;;;5042077;28;20082;-61
2023/07/07 13:43:03;;;;;;;12.98;12.38;;;;;;;;;;5039260;28;20024;-61
2023/07/07 13:45:30;;;;;;;13.25;12.65;;;;;;;;;;5030632;28;20456;-61
2023/07/07 13:47:56;;;;;;;12.50;11.90;;;;;;;;;;5037806;28;20077;-61
2023/07/07 13:50:22;;;;;;;14.60;13.90;;;;;;;;;;5040407;28;20388;-61
2023/07/07 13:52:52;;;;;;;13.68;13.05;;;;;;;;;;5032938;28;20397;-61
2023/07/07 13:55:17;;;;;;;13.45;12.85;;;;;;;;;;5032467;28;20039;-61
2023/07/07 13:57:44;;;;;;;13.00;12.40;;;;;;;;;;5029522;28;20029;-60
2023/07/07 14:00:16;;;;;;;13.25;12.65;;;;;;;;;;5030699;28;20036;-62
2023/07/07 14:02:43;;;;;;;12.85;12.25;;;;;;;;;;5035499;28;20085;-60
2023/07/07 14:05:11;;;;;;;12.13;11.57;;;;;;;;;;5045746;28;20643;-61
2023/07/07 14:07:37;;;;;;;13.63;12.98;;;;;;;;;;5047604;28;20017;-63
2023/07/07 14:10:12;;;;;;;12.48;11.88;;;;;;;;;;5047153;28;20025;-61
2023/07/07 14:12:37;;;;;;;12.70;12.10;;;;;;;;;;5044046;28;20104;-61
2023/07/07 14:15:03;;;;;;;13.13;12.52;;;;;;;;;;5042445;28;20096;-62
2023/07/07 14:17:31;;;;;;;12.57;11.98;;;;;;;;;;5042611;28;20021;-61
2023/07/07 14:19:59;;;;;;;13.00;12.40;;;;;;;;;;5043799;28;20515;-61
2023/07/07 14:22:26;;;;;;;12.90;12.30;;;;;;;;;;5042060;28;20536;-60